sensor_id;sensor_type;location;lat;lon;timestamp;temperature;humidity
21035;DHT22;10676;50.848;3.272;2024-03-06T00:02:06;6.70;99.90
21035;DHT22;10676;50.848;3.272;2024-03-06T00:04:33;6.60;99.90
21035;DHT22;10676;50.848;3.272;2024-03-06T00:06:59;6.60;99.90
21035;DHT22;10676;50.848;3.272;2024-03-06T00:09:25;6.60;99.90
21035;DHT22;10676;50.848;3.272;2024-03-06T00:11:55;6.70;99.90
21035;DHT22;10676;50.848;3.272;2024-03-06T00:14:21;6.60;99.90
21035;DHT22;10676;50.848;3.272;2024-03-06T00:16:48;6.60;99.90
21035;DHT22;10676;50.848;3.272;2024-03-06T00:19:18;6.60;99.90
21035;DHT22;10676;50.848;3.272;2024-03-06T00:21:44;6.60;99.90
21035;DHT22;10676;50.848;3.272;2024-03-06T00:24:13;6.60;99.90
21035;DHT22;10676;50.848;3.272;2024-03-06T00:26:43;6.60;99.90
21035;DHT22;10676;50.848;3.272;2024-03-06T00:29:10;6.60;99.90
21035;DHT22;10676;50.848;3.272;2024-03-06T00:31:36;6.60;99.90
21035;DHT22;10676;50.848;3.272;2024-03-06T00:34:02;6.60;99.90
21035;DHT22;10676;50.848;3.272;2024-03-06T00:36:28;6.70;99.90
21035;DHT22;10676;50.848;3.272;2024-03-06T00:38:53;6.70;99.90
21035;DHT22;10676;50.848;3.272;2024-03-06T00:41:19;6.70;99.90
21035;DHT22;10676;50.848;3.272;2024-03-06T00:43:45;6.70;99.90
21035;DHT22;10676;50.848;3.272;2024-03-06T00:46:11;6.70;99.90
21035;DHT22;10676;50.848;3.272;2024-03-06T00:48:37;6.70;99.90
21035;DHT22;10676;50.848;3.272;2024-03-06T00:51:05;6.70;99.90
21035;DHT22;10676;50.848;3.272;2024-03-06T00:53:32;6.70;99.90
21035;DHT22;10676;50.848;3.272;2024-03-06T00:55:57;6.60;99.90
21035;DHT22;10676;50.848;3.272;2024-03-06T00:58:23;6.60;99.90
21035;DHT22;10676;50.848;3.272;2024-03-06T01:00:49;6.60;99.90
21035;DHT22;10676;50.848;3.272;2024-03-06T01:03:15;6.50;99.90
21035;DHT22;10676;50.848;3.272;2024-03-06T01:05:40;6.50;99.90
21035;DHT22;10676;50.848;3.272;2024-03-06T01:08:06;6.40;99.90
21035;DHT22;10676;50.848;3.272;2024-03-06T01:10:31;6.40;99.90
21035;DHT22;10676;50.848;3.272;2024-03-06T01:12:57;6.40;99.90
21035;DHT22;10676;50.848;3.272;2024-03-06T01:15:23;6.30;99.90
21035;DHT22;10676;50.848;3.272;2024-03-06T01:17:49;6.30;99.90
21035;DHT22;10676;50.848;3.272;2024-03-06T01:20:15;6.30;99.90
21035;DHT22;10676;50.848;3.272;2024-03-06T01:22:40;6.20;99.90
21035;DHT22;10676;50.848;3.272;2024-03-06T01:25:06;6.30;99.90
21035;DHT22;10676;50.848;3.272;2024-03-06T01:27:33;6.30;99.90
21035;DHT22;10676;50.848;3.272;2024-03-06T01:29:58;6.30;99.90
21035;DHT22;10676;50.848;3.272;2024-03-06T01:32:24;6.30;99.90
21035;DHT22;10676;50.848;3.272;2024-03-06T01:34:50;6.20;99.90
21035;DHT22;10676;50.848;3.272;2024-03-06T01:37:15;6.30;99.90
21035;DHT22;10676;50.848;3.272;2024-03-06T01:39:41;6.20;99.90
21035;DHT22;10676;50.848;3.272;2024-03-06T01:42:07;6.30;99.90
21035;DHT22;10676;50.848;3.272;2024-03-06T01:44:33;6.20;99.90
21035;DHT22;10676;50.848;3.272;2024-03-06T01:46:58;6.20;99.90
21035;DHT22;10676;50.848;3.272;2024-03-06T01:49:25;6.30;99.90
21035;DHT22;10676;50.848;3.272;2024-03-06T01:51:54;6.30;99.90
21035;DHT22;10676;50.848;3.272;2024-03-06T01:54:21;6.30;99.90
21035;DHT22;10676;50.848;3.272;2024-03-06T01:56:47;6.40;99.90
21035;DHT22;10676;50.848;3.272;2024-03-06T01:59:15;6.40;99.90
21035;DHT22;10676;50.848;3.272;2024-03-06T02:01:42;6.40;99.90
21035;DHT22;10676;50.848;3.272;2024-03-06T02:04:09;6.40;99.90
21035;DHT22;10676;50.848;3.272;2024-03-06T02:06:41;6.40;99.90
21035;DHT22;10676;50.848;3.272;2024-03-06T02:09:07;6.40;99.90
21035;DHT22;10676;50.848;3.272;2024-03-06T02:11:35;6.40;99.90
21035;DHT22;10676;50.848;3.272;2024-03-06T02:14:01;6.30;99.90
21035;DHT22;10676;50.848;3.272;2024-03-06T02:16:26;6.20;99.90
21035;DHT22;10676;50.848;3.272;2024-03-06T02:18:56;6.10;99.90
21035;DHT22;10676;50.848;3.272;2024-03-06T02:21:25;6.10;99.90
21035;DHT22;10676;50.848;3.272;2024-03-06T02:23:51;6.00;99.90
21035;DHT22;10676;50.848;3.272;2024-03-06T02:26:18;6.00;99.90
21035;DHT22;10676;50.848;3.272;2024-03-06T02:29:01;5.90;99.90
21035;DHT22;10676;50.848;3.272;2024-03-06T02:31:27;6.00;99.90
21035;DHT22;10676;50.848;3.272;2024-03-06T02:33:53;6.00;99.90
21035;DHT22;10676;50.848;3.272;2024-03-06T02:36:19;6.00;99.90
21035;DHT22;10676;50.848;3.272;2024-03-06T02:38:45;6.10;99.90
21035;DHT22;10676;50.848;3.272;2024-03-06T02:41:12;6.10;99.90
21035;DHT22;10676;50.848;3.272;2024-03-06T02:43:39;6.10;99.90
21035;DHT22;10676;50.848;3.272;2024-03-06T02:46:05;6.10;99.90
21035;DHT22;10676;50.848;3.272;2024-03-06T02:48:31;6.20;99.90
21035;DHT22;10676;50.848;3.272;2024-03-06T02:50:57;6.20;99.90
21035;DHT22;10676;50.848;3.272;2024-03-06T02:53:23;6.20;99.90
21035;DHT22;10676;50.848;3.272;2024-03-06T02:55:48;6.20;99.90
21035;DHT22;10676;50.848;3.272;2024-03-06T02:58:15;6.20;99.90
21035;DHT22;10676;50.848;3.272;2024-03-06T03:00:42;6.20;99.90
21035;DHT22;10676;50.848;3.272;2024-03-06T03:03:08;6.20;99.90
21035;DHT22;10676;50.848;3.272;2024-03-06T03:05:33;6.20;99.90
21035;DHT22;10676;50.848;3.272;2024-03-06T03:07:59;6.30;99.90
21035;DHT22;10676;50.848;3.272;2024-03-06T03:10:25;6.30;99.90
21035;DHT22;10676;50.848;3.272;2024-03-06T03:12:51;6.30;99.90
21035;DHT22;10676;50.848;3.272;2024-03-06T03:15:17;6.30;99.90
21035;DHT22;10676;50.848;3.272;2024-03-06T03:17:44;6.30;99.90
21035;DHT22;10676;50.848;3.272;2024-03-06T03:20:10;6.40;99.90
21035;DHT22;10676;50.848;3.272;2024-03-06T03:22:37;6.40;99.90
21035;DHT22;10676;50.848;3.272;2024-03-06T03:25:07;6.40;99.90
21035;DHT22;10676;50.848;3.272;2024-03-06T03:27:33;6.40;99.90
21035;DHT22;10676;50.848;3.272;2024-03-06T03:29:59;6.40;99.90
21035;DHT22;10676;50.848;3.272;2024-03-06T03:32:25;6.40;99.90
21035;DHT22;10676;50.848;3.272;2024-03-06T03:34:50;6.50;99.90
21035;DHT22;10676;50.848;3.272;2024-03-06T03:37:16;6.50;99.90
21035;DHT22;10676;50.848;3.272;2024-03-06T03:39:44;6.50;99.90
21035;DHT22;10676;50.848;3.272;2024-03-06T03:42:10;6.50;99.90
21035;DHT22;10676;50.848;3.272;2024-03-06T03:44:35;6.50;99.90
21035;DHT22;10676;50.848;3.272;2024-03-06T03:47:01;6.40;99.90
21035;DHT22;10676;50.848;3.272;2024-03-06T03:49:27;6.40;99.90
21035;DHT22;10676;50.848;3.272;2024-03-06T03:51:53;6.40;99.90
21035;DHT22;10676;50.848;3.272;2024-03-06T03:54:18;6.40;99.90
21035;DHT22;10676;50.848;3.272;2024-03-06T03:56:44;6.40;99.90
21035;DHT22;10676;50.848;3.272;2024-03-06T03:59:10;6.40;99.90
21035;DHT22;10676;50.848;3.272;2024-03-06T04:01:35;6.30;99.90
21035;DHT22;10676;50.848;3.272;2024-03-06T04:04:01;6.30;99.90
21035;DHT22;10676;50.848;3.272;2024-03-06T04:06:27;6.30;99.90
21035;DHT22;10676;50.848;3.272;2024-03-06T04:08:52;6.30;99.90
21035;DHT22;10676;50.848;3.272;2024-03-06T04:11:18;6.40;99.90
21035;DHT22;10676;50.848;3.272;2024-03-06T04:13:44;6.40;99.90
21035;DHT22;10676;50.848;3.272;2024-03-06T04:16:09;6.40;99.90
21035;DHT22;10676;50.848;3.272;2024-03-06T04:18:35;6.40;99.90
21035;DHT22;10676;50.848;3.272;2024-03-06T04:21:05;6.30;99.90
21035;DHT22;10676;50.848;3.272;2024-03-06T04:23:31;6.30;99.90
21035;DHT22;10676;50.848;3.272;2024-03-06T04:25:57;6.30;99.90
21035;DHT22;10676;50.848;3.272;2024-03-06T04:28:23;6.30;99.90
21035;DHT22;10676;50.848;3.272;2024-03-06T04:30:48;6.30;99.90
21035;DHT22;10676;50.848;3.272;2024-03-06T04:33:14;6.30;99.90
21035;DHT22;10676;50.848;3.272;2024-03-06T04:35:40;6.30;99.90
21035;DHT22;10676;50.848;3.272;2024-03-06T04:38:06;6.40;99.90
21035;DHT22;10676;50.848;3.272;2024-03-06T04:40:33;6.40;99.90
21035;DHT22;10676;50.848;3.272;2024-03-06T04:43:02;6.40;99.90
21035;DHT22;10676;50.848;3.272;2024-03-06T04:45:28;6.40;99.90
21035;DHT22;10676;50.848;3.272;2024-03-06T04:47:54;6.30;99.90
21035;DHT22;10676;50.848;3.272;2024-03-06T04:50:20;6.20;99.90
21035;DHT22;10676;50.848;3.272;2024-03-06T04:52:46;6.30;99.90
21035;DHT22;10676;50.848;3.272;2024-03-06T04:55:12;6.20;99.90
21035;DHT22;10676;50.848;3.272;2024-03-06T04:57:39;6.20;99.90
21035;DHT22;10676;50.848;3.272;2024-03-06T05:00:06;6.20;99.90
21035;DHT22;10676;50.848;3.272;2024-03-06T05:02:34;6.20;99.90
21035;DHT22;10676;50.848;3.272;2024-03-06T05:05:01;6.20;99.90
21035;DHT22;10676;50.848;3.272;2024-03-06T05:07:28;6.20;99.90
21035;DHT22;10676;50.848;3.272;2024-03-06T05:09:55;6.20;99.90
21035;DHT22;10676;50.848;3.272;2024-03-06T05:12:20;6.20;99.90
21035;DHT22;10676;50.848;3.272;2024-03-06T05:14:46;6.10;99.90
21035;DHT22;10676;50.848;3.272;2024-03-06T05:17:11;6.00;99.90
21035;DHT22;10676;50.848;3.272;2024-03-06T05:19:37;5.90;99.90
21035;DHT22;10676;50.848;3.272;2024-03-06T05:22:03;5.90;99.90
21035;DHT22;10676;50.848;3.272;2024-03-06T05:24:29;5.80;99.90
21035;DHT22;10676;50.848;3.272;2024-03-06T05:26:55;5.80;99.90
21035;DHT22;10676;50.848;3.272;2024-03-06T05:29:21;5.70;99.90
21035;DHT22;10676;50.848;3.272;2024-03-06T05:31:47;5.70;99.90
21035;DHT22;10676;50.848;3.272;2024-03-06T05:34:12;5.60;99.90
21035;DHT22;10676;50.848;3.272;2024-03-06T05:36:38;5.60;99.90
21035;DHT22;10676;50.848;3.272;2024-03-06T05:39:03;5.60;99.90
21035;DHT22;10676;50.848;3.272;2024-03-06T05:41:33;5.50;99.90
21035;DHT22;10676;50.848;3.272;2024-03-06T05:43:59;5.50;99.90
21035;DHT22;10676;50.848;3.272;2024-03-06T05:46:24;5.60;99.90
21035;DHT22;10676;50.848;3.272;2024-03-06T05:48:51;5.60;99.90
21035;DHT22;10676;50.848;3.272;2024-03-06T05:51:17;5.60;99.90
21035;DHT22;10676;50.848;3.272;2024-03-06T05:53:43;5.60;99.90
21035;DHT22;10676;50.848;3.272;2024-03-06T05:56:09;5.60;99.90
21035;DHT22;10676;50.848;3.272;2024-03-06T05:58:35;5.60;99.90
21035;DHT22;10676;50.848;3.272;2024-03-06T06:01:01;5.60;99.90
21035;DHT22;10676;50.848;3.272;2024-03-06T06:03:29;5.60;99.90
21035;DHT22;10676;50.848;3.272;2024-03-06T06:05:55;5.60;99.90
21035;DHT22;10676;50.848;3.272;2024-03-06T06:08:21;5.60;99.90
21035;DHT22;10676;50.848;3.272;2024-03-06T06:10:47;5.50;99.90
21035;DHT22;10676;50.848;3.272;2024-03-06T06:13:13;5.50;99.90
21035;DHT22;10676;50.848;3.272;2024-03-06T06:15:40;5.50;99.90
21035;DHT22;10676;50.848;3.272;2024-03-06T06:18:06;5.40;99.90
21035;DHT22;10676;50.848;3.272;2024-03-06T06:20:32;5.40;99.90
21035;DHT22;10676;50.848;3.272;2024-03-06T06:22:58;5.40;99.90
21035;DHT22;10676;50.848;3.272;2024-03-06T06:25:23;5.40;99.90
21035;DHT22;10676;50.848;3.272;2024-03-06T06:27:49;5.40;99.90
21035;DHT22;10676;50.848;3.272;2024-03-06T06:30:15;5.40;99.90
21035;DHT22;10676;50.848;3.272;2024-03-06T06:32:42;5.30;99.90
21035;DHT22;10676;50.848;3.272;2024-03-06T06:35:09;5.30;99.90
21035;DHT22;10676;50.848;3.272;2024-03-06T06:37:35;5.30;99.90
21035;DHT22;10676;50.848;3.272;2024-03-06T06:40:01;5.30;99.90
21035;DHT22;10676;50.848;3.272;2024-03-06T06:42:32;5.30;99.90
21035;DHT22;10676;50.848;3.272;2024-03-06T06:44:59;5.40;99.90
21035;DHT22;10676;50.848;3.272;2024-03-06T06:47:24;5.50;99.90
21035;DHT22;10676;50.848;3.272;2024-03-06T06:49:50;5.70;99.90
21035;DHT22;10676;50.848;3.272;2024-03-06T06:52:16;5.90;99.90
21035;DHT22;10676;50.848;3.272;2024-03-06T06:54:42;6.20;99.90
21035;DHT22;10676;50.848;3.272;2024-03-06T06:57:08;6.40;99.90
21035;DHT22;10676;50.848;3.272;2024-03-06T06:59:34;6.70;99.90
21035;DHT22;10676;50.848;3.272;2024-03-06T07:02:00;7.00;99.90
21035;DHT22;10676;50.848;3.272;2024-03-06T07:04:26;7.30;99.90
21035;DHT22;10676;50.848;3.272;2024-03-06T07:06:52;7.30;99.90
21035;DHT22;10676;50.848;3.272;2024-03-06T07:09:19;7.40;99.90
21035;DHT22;10676;50.848;3.272;2024-03-06T07:11:44;7.40;99.90
21035;DHT22;10676;50.848;3.272;2024-03-06T07:14:12;7.60;99.90
21035;DHT22;10676;50.848;3.272;2024-03-06T07:16:45;7.90;99.90
21035;DHT22;10676;50.848;3.272;2024-03-06T07:19:11;8.50;99.90
21035;DHT22;10676;50.848;3.272;2024-03-06T07:21:36;9.10;99.90
21035;DHT22;10676;50.848;3.272;2024-03-06T07:24:03;9.90;99.90
21035;DHT22;10676;50.848;3.272;2024-03-06T07:26:31;10.80;99.90
21035;DHT22;10676;50.848;3.272;2024-03-06T07:28:57;11.70;99.90
21035;DHT22;10676;50.848;3.272;2024-03-06T07:31:24;12.50;99.90
21035;DHT22;10676;50.848;3.272;2024-03-06T07:33:50;13.40;99.90
21035;DHT22;10676;50.848;3.272;2024-03-06T07:36:15;14.40;99.90
21035;DHT22;10676;50.848;3.272;2024-03-06T07:38:42;15.40;99.90
21035;DHT22;10676;50.848;3.272;2024-03-06T07:41:08;16.50;99.90
21035;DHT22;10676;50.848;3.272;2024-03-06T07:43:34;17.40;99.90
21035;DHT22;10676;50.848;3.272;2024-03-06T07:45:59;18.10;99.90
21035;DHT22;10676;50.848;3.272;2024-03-06T07:48:26;18.60;99.90
21035;DHT22;10676;50.848;3.272;2024-03-06T07:50:51;19.00;99.90
21035;DHT22;10676;50.848;3.272;2024-03-06T07:53:17;19.10;99.90
21035;DHT22;10676;50.848;3.272;2024-03-06T07:55:43;18.80;99.90
21035;DHT22;10676;50.848;3.272;2024-03-06T07:58:09;18.30;99.90
21035;DHT22;10676;50.848;3.272;2024-03-06T08:00:36;18.30;99.90
21035;DHT22;10676;50.848;3.272;2024-03-06T08:03:01;18.80;99.90
21035;DHT22;10676;50.848;3.272;2024-03-06T08:05:28;19.40;99.90
21035;DHT22;10676;50.848;3.272;2024-03-06T08:07:54;19.80;99.90
21035;DHT22;10676;50.848;3.272;2024-03-06T08:10:19;20.00;99.90
21035;DHT22;10676;50.848;3.272;2024-03-06T08:12:45;20.00;99.90
21035;DHT22;10676;50.848;3.272;2024-03-06T08:15:14;20.10;99.90
21035;DHT22;10676;50.848;3.272;2024-03-06T08:17:40;20.20;99.90
21035;DHT22;10676;50.848;3.272;2024-03-06T08:20:09;20.30;99.90
21035;DHT22;10676;50.848;3.272;2024-03-06T08:22:39;20.30;99.90
21035;DHT22;10676;50.848;3.272;2024-03-06T08:25:06;20.30;99.90
21035;DHT22;10676;50.848;3.272;2024-03-06T08:27:33;20.20;99.90
21035;DHT22;10676;50.848;3.272;2024-03-06T08:29:59;20.10;99.90
21035;DHT22;10676;50.848;3.272;2024-03-06T08:32:25;20.00;99.90
21035;DHT22;10676;50.848;3.272;2024-03-06T08:34:50;19.80;99.90
21035;DHT22;10676;50.848;3.272;2024-03-06T08:37:16;19.60;99.90
21035;DHT22;10676;50.848;3.272;2024-03-06T08:39:41;19.30;99.90
21035;DHT22;10676;50.848;3.272;2024-03-06T08:42:07;18.80;99.90
21035;DHT22;10676;50.848;3.272;2024-03-06T08:44:34;18.40;99.90
21035;DHT22;10676;50.848;3.272;2024-03-06T08:46:59;17.90;99.90
21035;DHT22;10676;50.848;3.272;2024-03-06T08:49:25;17.60;99.90
21035;DHT22;10676;50.848;3.272;2024-03-06T08:51:50;17.40;99.90
21035;DHT22;10676;50.848;3.272;2024-03-06T08:54:16;17.50;99.90
21035;DHT22;10676;50.848;3.272;2024-03-06T08:56:45;17.80;99.90
21035;DHT22;10676;50.848;3.272;2024-03-06T08:59:10;18.20;99.90
21035;DHT22;10676;50.848;3.272;2024-03-06T09:01:36;18.50;99.90
21035;DHT22;10676;50.848;3.272;2024-03-06T09:04:02;19.00;99.90
21035;DHT22;10676;50.848;3.272;2024-03-06T09:06:27;19.80;99.90
21035;DHT22;10676;50.848;3.272;2024-03-06T09:08:53;21.10;99.90
21035;DHT22;10676;50.848;3.272;2024-03-06T09:11:18;22.50;99.90
21035;DHT22;10676;50.848;3.272;2024-03-06T09:13:44;23.70;99.90
21035;DHT22;10676;50.848;3.272;2024-03-06T09:16:10;24.70;99.90
21035;DHT22;10676;50.848;3.272;2024-03-06T09:18:35;25.80;99.90
21035;DHT22;10676;50.848;3.272;2024-03-06T09:21:01;26.60;99.90
21035;DHT22;10676;50.848;3.272;2024-03-06T09:23:27;27.30;99.90
21035;DHT22;10676;50.848;3.272;2024-03-06T09:25:55;28.00;96.20
21035;DHT22;10676;50.848;3.272;2024-03-06T09:28:21;28.40;95.00
21035;DHT22;10676;50.848;3.272;2024-03-06T09:30:48;28.70;93.20
21035;DHT22;10676;50.848;3.272;2024-03-06T09:33:13;28.90;90.90
21035;DHT22;10676;50.848;3.272;2024-03-06T09:35:39;28.60;89.10
21035;DHT22;10676;50.848;3.272;2024-03-06T09:38:13;27.80;88.50
21035;DHT22;10676;50.848;3.272;2024-03-06T09:40:39;27.10;87.30
21035;DHT22;10676;50.848;3.272;2024-03-06T09:43:08;26.90;88.00
21035;DHT22;10676;50.848;3.272;2024-03-06T09:45:34;27.10;84.90
21035;DHT22;10676;50.848;3.272;2024-03-06T09:48:01;27.30;84.20
21035;DHT22;10676;50.848;3.272;2024-03-06T09:50:29;27.50;82.00
21035;DHT22;10676;50.848;3.272;2024-03-06T09:52:58;27.50;80.80
21035;DHT22;10676;50.848;3.272;2024-03-06T09:55:25;27.40;79.10
21035;DHT22;10676;50.848;3.272;2024-03-06T09:57:51;27.50;78.30
21035;DHT22;10676;50.848;3.272;2024-03-06T10:00:17;27.60;80.20
21035;DHT22;10676;50.848;3.272;2024-03-06T10:02:57;27.90;80.10
21035;DHT22;10676;50.848;3.272;2024-03-06T10:05:24;28.10;77.80
21035;DHT22;10676;50.848;3.272;2024-03-06T10:07:51;27.60;77.70
21035;DHT22;10676;50.848;3.272;2024-03-06T10:10:18;27.00;78.90
21035;DHT22;10676;50.848;3.272;2024-03-06T10:12:47;26.60;79.20
21035;DHT22;10676;50.848;3.272;2024-03-06T10:15:15;26.20;80.80
21035;DHT22;10676;50.848;3.272;2024-03-06T10:17:41;26.00;78.80
21035;DHT22;10676;50.848;3.272;2024-03-06T10:20:27;25.30;79.40
21035;DHT22;10676;50.848;3.272;2024-03-06T10:22:54;24.20;84.20
21035;DHT22;10676;50.848;3.272;2024-03-06T10:25:23;23.20;88.20
21035;DHT22;10676;50.848;3.272;2024-03-06T10:30:32;21.60;90.80
21035;DHT22;10676;50.848;3.272;2024-03-06T10:33:03;21.40;91.80
21035;DHT22;10676;50.848;3.272;2024-03-06T10:35:29;21.60;91.70
21035;DHT22;10676;50.848;3.272;2024-03-06T10:37:55;21.40;91.40
21035;DHT22;10676;50.848;3.272;2024-03-06T10:40:22;21.20;91.30
21035;DHT22;10676;50.848;3.272;2024-03-06T10:42:48;20.90;90.90
21035;DHT22;10676;50.848;3.272;2024-03-06T10:45:15;20.50;91.60
21035;DHT22;10676;50.848;3.272;2024-03-06T10:47:46;20.00;91.80
21035;DHT22;10676;50.848;3.272;2024-03-06T10:50:15;19.70;92.90
21035;DHT22;10676;50.848;3.272;2024-03-06T10:52:42;19.60;94.30
21035;DHT22;10676;50.848;3.272;2024-03-06T10:55:11;19.80;95.40
21035;DHT22;10676;50.848;3.272;2024-03-06T10:57:39;20.80;95.90
21035;DHT22;10676;50.848;3.272;2024-03-06T11:00:06;22.10;93.80
21035;DHT22;10676;50.848;3.272;2024-03-06T11:02:32;22.60;93.00
21035;DHT22;10676;50.848;3.272;2024-03-06T11:05:02;23.00;93.10
21035;DHT22;10676;50.848;3.272;2024-03-06T11:07:30;24.00;91.30
21035;DHT22;10676;50.848;3.272;2024-03-06T11:09:58;24.60;87.50
21035;DHT22;10676;50.848;3.272;2024-03-06T11:12:38;24.60;88.80
21035;DHT22;10676;50.848;3.272;2024-03-06T11:15:14;24.20;90.50
21035;DHT22;10676;50.848;3.272;2024-03-06T11:17:41;23.70;90.70
21035;DHT22;10676;50.848;3.272;2024-03-06T11:20:17;23.90;90.40
21035;DHT22;10676;50.848;3.272;2024-03-06T11:28:23;25.70;90.30
21035;DHT22;10676;50.848;3.272;2024-03-06T11:31:02;26.30;87.90
21035;DHT22;10676;50.848;3.272;2024-03-06T11:33:38;26.60;84.40
21035;DHT22;10676;50.848;3.272;2024-03-06T11:39:05;25.80;85.00
21035;DHT22;10676;50.848;3.272;2024-03-06T11:44:14;26.50;81.70
21035;DHT22;10676;50.848;3.272;2024-03-06T11:47:02;27.10;77.90
21035;DHT22;10676;50.848;3.272;2024-03-06T11:49:33;27.70;75.50
21035;DHT22;10676;50.848;3.272;2024-03-06T11:52:12;28.00;73.40
21035;DHT22;10676;50.848;3.272;2024-03-06T11:54:37;28.00;72.30
21035;DHT22;10676;50.848;3.272;2024-03-06T11:57:05;28.10;71.90
21035;DHT22;10676;50.848;3.272;2024-03-06T11:59:32;28.10;71.60
21035;DHT22;10676;50.848;3.272;2024-03-06T12:02:06;27.90;67.00
21035;DHT22;10676;50.848;3.272;2024-03-06T12:04:35;27.10;70.10
21035;DHT22;10676;50.848;3.272;2024-03-06T12:07:03;26.60;70.40
21035;DHT22;10676;50.848;3.272;2024-03-06T12:09:32;26.60;71.10
21035;DHT22;10676;50.848;3.272;2024-03-06T12:11:58;26.60;71.80
21035;DHT22;10676;50.848;3.272;2024-03-06T12:14:24;26.80;72.40
21035;DHT22;10676;50.848;3.272;2024-03-06T12:17:00;26.90;70.50
21035;DHT22;10676;50.848;3.272;2024-03-06T12:19:32;27.20;71.60
21035;DHT22;10676;50.848;3.272;2024-03-06T12:22:04;27.40;71.30
21035;DHT22;10676;50.848;3.272;2024-03-06T12:24:30;27.70;69.90
21035;DHT22;10676;50.848;3.272;2024-03-06T12:27:00;27.80;69.20
21035;DHT22;10676;50.848;3.272;2024-03-06T12:29:28;27.70;68.60
21035;DHT22;10676;50.848;3.272;2024-03-06T12:31:55;27.60;67.00
21035;DHT22;10676;50.848;3.272;2024-03-06T12:34:22;27.50;67.70
21035;DHT22;10676;50.848;3.272;2024-03-06T12:36:48;27.40;68.20
21035;DHT22;10676;50.848;3.272;2024-03-06T12:39:15;27.40;68.30
21035;DHT22;10676;50.848;3.272;2024-03-06T12:41:46;27.30;66.60
21035;DHT22;10676;50.848;3.272;2024-03-06T12:44:12;27.30;66.90
21035;DHT22;10676;50.848;3.272;2024-03-06T12:46:37;27.20;66.20
21035;DHT22;10676;50.848;3.272;2024-03-06T12:49:03;27.00;66.20
21035;DHT22;10676;50.848;3.272;2024-03-06T12:51:29;26.60;65.90
21035;DHT22;10676;50.848;3.272;2024-03-06T12:53:54;26.40;68.50
21035;DHT22;10676;50.848;3.272;2024-03-06T12:56:20;26.40;68.40
21035;DHT22;10676;50.848;3.272;2024-03-06T12:58:46;26.40;68.30
21035;DHT22;10676;50.848;3.272;2024-03-06T13:01:11;26.20;67.10
21035;DHT22;10676;50.848;3.272;2024-03-06T13:03:37;25.90;67.80
21035;DHT22;10676;50.848;3.272;2024-03-06T13:06:04;25.60;68.10
21035;DHT22;10676;50.848;3.272;2024-03-06T13:08:30;25.20;69.40
21035;DHT22;10676;50.848;3.272;2024-03-06T13:10:56;24.90;68.70
21035;DHT22;10676;50.848;3.272;2024-03-06T13:13:22;24.60;68.30
21035;DHT22;10676;50.848;3.272;2024-03-06T13:15:51;24.30;69.60
21035;DHT22;10676;50.848;3.272;2024-03-06T13:18:18;23.90;70.70
21035;DHT22;10676;50.848;3.272;2024-03-06T13:20:44;23.50;71.00
21035;DHT22;10676;50.848;3.272;2024-03-06T13:23:10;23.30;71.80
21035;DHT22;10676;50.848;3.272;2024-03-06T13:25:36;23.00;72.80
21035;DHT22;10676;50.848;3.272;2024-03-06T13:28:02;22.80;72.90
21035;DHT22;10676;50.848;3.272;2024-03-06T13:30:28;22.50;72.60
21035;DHT22;10676;50.848;3.272;2024-03-06T13:32:54;22.30;73.30
21035;DHT22;10676;50.848;3.272;2024-03-06T13:35:20;22.20;73.50
21035;DHT22;10676;50.848;3.272;2024-03-06T13:37:46;22.00;73.80
21035;DHT22;10676;50.848;3.272;2024-03-06T13:40:12;21.70;76.20
21035;DHT22;10676;50.848;3.272;2024-03-06T13:42:42;21.40;76.60
21035;DHT22;10676;50.848;3.272;2024-03-06T13:45:09;21.30;75.80
21035;DHT22;10676;50.848;3.272;2024-03-06T13:47:38;21.30;76.00
21035;DHT22;10676;50.848;3.272;2024-03-06T13:50:10;21.20;74.80
21035;DHT22;10676;50.848;3.272;2024-03-06T13:52:36;21.00;75.70
21035;DHT22;10676;50.848;3.272;2024-03-06T13:55:02;20.80;76.50
21035;DHT22;10676;50.848;3.272;2024-03-06T13:57:36;20.70;77.10
21035;DHT22;10676;50.848;3.272;2024-03-06T14:00:09;20.70;76.80
21035;DHT22;10676;50.848;3.272;2024-03-06T14:02:42;20.50;76.90
21035;DHT22;10676;50.848;3.272;2024-03-06T14:05:08;20.40;76.90
21035;DHT22;10676;50.848;3.272;2024-03-06T14:07:34;20.30;75.20
21035;DHT22;10676;50.848;3.272;2024-03-06T14:10:00;20.20;77.60
21035;DHT22;10676;50.848;3.272;2024-03-06T14:12:26;20.10;78.10
21035;DHT22;10676;50.848;3.272;2024-03-06T14:14:51;20.20;77.90
21035;DHT22;10676;50.848;3.272;2024-03-06T14:17:17;20.30;78.20
21035;DHT22;10676;50.848;3.272;2024-03-06T14:19:43;20.40;77.10
21035;DHT22;10676;50.848;3.272;2024-03-06T14:22:10;20.60;76.70
21035;DHT22;10676;50.848;3.272;2024-03-06T14:24:36;20.70;76.90
21035;DHT22;10676;50.848;3.272;2024-03-06T14:27:02;20.70;76.20
21035;DHT22;10676;50.848;3.272;2024-03-06T14:29:29;20.70;76.20
21035;DHT22;10676;50.848;3.272;2024-03-06T14:31:55;20.70;76.70
21035;DHT22;10676;50.848;3.272;2024-03-06T14:34:21;20.80;78.00
21035;DHT22;10676;50.848;3.272;2024-03-06T14:36:50;20.90;75.80
21035;DHT22;10676;50.848;3.272;2024-03-06T14:39:15;21.10;75.10
21035;DHT22;10676;50.848;3.272;2024-03-06T14:41:41;21.10;75.30
21035;DHT22;10676;50.848;3.272;2024-03-06T14:44:08;21.10;75.30
21035;DHT22;10676;50.848;3.272;2024-03-06T14:46:34;21.10;76.30
21035;DHT22;10676;50.848;3.272;2024-03-06T14:49:00;21.00;76.10
21035;DHT22;10676;50.848;3.272;2024-03-06T14:51:28;20.90;75.50
21035;DHT22;10676;50.848;3.272;2024-03-06T14:53:53;20.90;75.50
21035;DHT22;10676;50.848;3.272;2024-03-06T14:56:19;20.90;76.20
21035;DHT22;10676;50.848;3.272;2024-03-06T14:58:47;20.90;77.30
21035;DHT22;10676;50.848;3.272;2024-03-06T15:01:13;20.90;75.80
21035;DHT22;10676;50.848;3.272;2024-03-06T15:03:38;20.80;77.00
21035;DHT22;10676;50.848;3.272;2024-03-06T15:06:05;20.80;76.80
21035;DHT22;10676;50.848;3.272;2024-03-06T15:08:33;21.00;76.90
21035;DHT22;10676;50.848;3.272;2024-03-06T15:11:00;21.10;76.20
21035;DHT22;10676;50.848;3.272;2024-03-06T15:13:25;21.20;75.70
21035;DHT22;10676;50.848;3.272;2024-03-06T15:15:51;21.40;74.90
21035;DHT22;10676;50.848;3.272;2024-03-06T15:18:17;21.50;75.20
21035;DHT22;10676;50.848;3.272;2024-03-06T15:20:43;21.70;74.90
21035;DHT22;10676;50.848;3.272;2024-03-06T15:23:09;21.80;74.00
21035;DHT22;10676;50.848;3.272;2024-03-06T15:25:35;22.00;73.80
21035;DHT22;10676;50.848;3.272;2024-03-06T15:28:01;22.10;75.00
21035;DHT22;10676;50.848;3.272;2024-03-06T15:30:26;22.10;75.10
21035;DHT22;10676;50.848;3.272;2024-03-06T15:32:54;22.10;74.40
21035;DHT22;10676;50.848;3.272;2024-03-06T15:35:20;22.10;74.70
21035;DHT22;10676;50.848;3.272;2024-03-06T15:37:46;22.00;71.70
21035;DHT22;10676;50.848;3.272;2024-03-06T15:40:12;21.80;71.90
21035;DHT22;10676;50.848;3.272;2024-03-06T15:42:37;21.50;72.00
21035;DHT22;10676;50.848;3.272;2024-03-06T15:45:03;21.10;72.50
21035;DHT22;10676;50.848;3.272;2024-03-06T15:47:30;20.70;74.40
21035;DHT22;10676;50.848;3.272;2024-03-06T15:49:57;20.30;74.60